Time;durP1;ratioP1;P1;durP2;ratioP2;P2;SDS_P1;SDS_P2;PMS_P1;PMS_P2;Temp;Humidity;BMP_temperature;BMP_pressure;BME280_temperature;BME280_humidity;BME280_pressure;Samples;Min_cycle;Max_cycle;Signal;HPM_P1;HPM_P2
2022/08/14 00:00:17;;;;;;;6.35;5.68;;;;;;;;;;10097090;28;20487;-70
2022/08/14 00:05:16;;;;;;;10.52;5.25;;;;;;;;;;10105812;28;20133;-70
2022/08/14 00:10:14;;;;;;;5.90;5.40;;;;;;;;;;10113438;28;20130;-70
2022/08/14 00:15:33;;;;;;;5.88;5.28;;;;;;;;;;10104349;28;20062;-70
2022/08/14 00:20:40;;;;;;;6.38;4.70;;;;;;;;;;10104822;28;20101;-69
2022/08/14 00:25:39;;;;;;;5.00;4.50;;;;;;;;;;10109948;28;20603;-69
2022/08/14 00:30:38;;;;;;;5.10;4.55;;;;;;;;;;10112386;28;20417;-69
2022/08/14 00:35:38;;;;;;;7.95;5.38;;;;;;;;;;10110327;28;20050;-69
2022/08/14 00:40:54;;;;;;;6.28;4.95;;;;;;;;;;10114455;28;20078;-69
2022/08/14 00:45:53;;;;;;;5.38;4.88;;;;;;;;;;10109894;28;20053;-70
2022/08/14 00:50:49;;;;;;;5.10;4.60;;;;;;;;;;10113564;28;20117;-70
2022/08/14 00:55:46;;;;;;;6.63;4.40;;;;;;;;;;10112822;28;20085;-70
2022/08/14 01:00:43;;;;;;;5.22;4.78;;;;;;;;;;10102436;28;20177;-71
2022/08/14 01:05:48;;;;;;;5.30;4.80;;;;;;;;;;10106885;28;20134;-70
2022/08/14 01:10:50;;;;;;;5.30;4.80;;;;;;;;;;10109715;28;20078;-70
2022/08/14 01:15:49;;;;;;;4.53;4.13;;;;;;;;;;10111234;28;20074;-70
2022/08/14 01:21:05;;;;;;;7.05;4.63;;;;;;;;;;10099654;28;20058;-70
2022/08/14 01:26:03;;;;;;;6.20;4.60;;;;;;;;;;10112628;28;20538;-69
2022/08/14 01:31:08;;;;;;;7.47;4.60;;;;;;;;;;10099635;28;20051;-69
2022/08/14 01:36:04;;;;;;;5.55;4.40;;;;;;;;;;10108052;28;20128;-69
2022/08/14 01:41:19;;;;;;;7.22;4.65;;;;;;;;;;10119862;28;20054;-68
2022/08/14 01:46:26;;;;;;;5.03;4.53;;;;;;;;;;10105390;28;20043;-69
2022/08/14 01:51:32;;;;;;;5.25;4.75;;;;;;;;;;10106905;28;20497;-69
2022/08/14 01:56:39;;;;;;;5.97;5.20;;;;;;;;;;10103584;28;20493;-69
2022/08/14 02:01:37;;;;;;;6.45;5.60;;;;;;;;;;10105907;28;20047;-69
2022/08/14 02:06:37;;;;;;;6.05;5.40;;;;;;;;;;10100875;28;20040;-70
2022/08/14 02:11:35;;;;;;;6.20;5.05;;;;;;;;;;10104456;28;20497;-70
2022/08/14 02:16:35;;;;;;;5.65;4.75;;;;;;;;;;10106637;28;20143;-69
2022/08/14 02:21:32;;;;;;;7.93;4.95;;;;;;;;;;10106805;28;20053;-69
2022/08/14 02:26:40;;;;;;;4.50;4.10;;;;;;;;;;10102097;28;20094;-69
2022/08/14 02:31:58;;;;;;;4.70;4.18;;;;;;;;;;10097189;28;20663;-69
2022/08/14 02:36:58;;;;;;;6.20;4.75;;;;;;;;;;10107140;28;20134;-69
2022/08/14 02:42:01;;;;;;;7.53;4.88;;;;;;;;;;10102490;28;20059;-71
2022/08/14 02:47:00;;;;;;;5.70;4.13;;;;;;;;;;10106597;28;20133;-68
2022/08/14 02:51:57;;;;;;;5.40;4.50;;;;;;;;;;10099055;28;20043;-69
2022/08/14 02:56:55;;;;;;;5.07;4.50;;;;;;;;;;10105412;28;20453;-69
2022/08/14 03:02:12;;;;;;;5.15;4.25;;;;;;;;;;10101526;28;20057;-70
2022/08/14 03:07:28;;;;;;;4.75;4.28;;;;;;;;;;10108039;28;20134;-70
2022/08/14 03:12:25;;;;;;;6.18;4.18;;;;;;;;;;10101741;28;20158;-70
2022/08/14 03:17:27;;;;;;;5.75;4.40;;;;;;;;;;10102065;28;20051;-70
2022/08/14 03:22:36;;;;;;;5.13;4.25;;;;;;;;;;10096897;28;20463;-69
2022/08/14 03:27:37;;;;;;;6.05;4.60;;;;;;;;;;10106296;28;20043;-69
2022/08/14 03:32:54;;;;;;;6.75;4.22;;;;;;;;;;10103755;28;20550;-69
2022/08/14 03:37:53;;;;;;;5.75;4.47;;;;;;;;;;10090833;28;20641;-70
2022/08/14 03:43:10;;;;;;;5.25;4.28;;;;;;;;;;10095757;28;20059;-70
2022/08/14 03:48:18;;;;;;;5.00;3.85;;;;;;;;;;10105234;28;20110;-70
2022/08/14 03:53:25;;;;;;;5.60;3.97;;;;;;;;;;10108939;28;20077;-70
2022/08/14 03:58:22;;;;;;;4.70;4.10;;;;;;;;;;10107290;28;20094;-69
2022/08/14 04:03:31;;;;;;;5.93;4.40;;;;;;;;;;10124471;28;20047;-69
2022/08/14 04:08:29;;;;;;;6.53;4.22;;;;;;;;;;10108066;28;20492;-69
2022/08/14 04:13:27;;;;;;;4.65;4.18;;;;;;;;;;10111222;28;20429;-69
2022/08/14 04:18:29;;;;;;;;;;;;;;;;;;10107400;28;20043;-69
2022/08/14 04:23:25;;;;;;;4.38;3.72;;;;;;;;;;10083407;28;20004;-69
2022/08/14 04:28:28;;;;;;;6.50;3.80;;;;;;;;;;10073929;28;20051;-69
2022/08/14 04:33:45;;;;;;;5.30;3.92;;;;;;;;;;10104051;28;20054;-69
2022/08/14 04:43:57;;;;;;;6.28;3.97;;;;;;;;;;10105305;28;20049;-70
2022/08/14 04:48:54;;;;;;;6.28;3.80;;;;;;;;;;10111225;28;20145;-70
2022/08/14 04:53:55;;;;;;;5.87;4.03;;;;;;;;;;10114460;28;20101;-70
2022/08/14 04:58:57;;;;;;;6.15;3.72;;;;;;;;;;10112876;28;20052;-69
2022/08/14 05:03:56;;;;;;;5.20;3.50;;;;;;;;;;10112566;28;20413;-70
2022/08/14 05:08:53;;;;;;;7.03;3.85;;;;;;;;;;10105278;28;20047;-70
2022/08/14 05:13:55;;;;;;;5.85;3.80;;;;;;;;;;10102790;28;20113;-70
2022/08/14 05:19:12;;;;;;;5.65;3.58;;;;;;;;;;10107924;28;20057;-70
2022/08/14 05:24:22;;;;;;;4.45;3.30;;;;;;;;;;10099046;28;20057;-69
2022/08/14 05:29:20;;;;;;;5.10;3.35;;;;;;;;;;10114294;28;20051;-69
2022/08/14 05:34:16;;;;;;;5.63;3.40;;;;;;;;;;10097957;28;20098;-69
2022/08/14 05:39:14;;;;;;;6.65;3.30;;;;;;;;;;10119061;28;20637;-70
2022/08/14 05:44:10;;;;;;;4.22;3.40;;;;;;;;;;10109677;28;20145;-70
2022/08/14 05:49:07;;;;;;;6.90;3.83;;;;;;;;;;10109774;28;20158;-70
2022/08/14 05:54:04;;;;;;;7.75;3.85;;;;;;;;;;10108875;28;20057;-70
2022/08/14 05:59:09;;;;;;;4.72;3.40;;;;;;;;;;10096619;28;20137;-69
2022/08/14 06:04:06;;;;;;;9.48;3.70;;;;;;;;;;10097697;28;20110;-69
2022/08/14 06:09:03;;;;;;;5.45;3.58;;;;;;;;;;10108166;28;20520;-69
2022/08/14 06:13:59;;;;;;;4.40;3.70;;;;;;;;;;10103742;28;20047;-69
2022/08/14 06:18:58;;;;;;;6.28;3.75;;;;;;;;;;10102291;28;20051;-70
2022/08/14 06:23:55;;;;;;;7.20;4.10;;;;;;;;;;10094058;28;20046;-70
2022/08/14 06:28:54;;;;;;;6.57;3.88;;;;;;;;;;10088830;28;20050;-70
2022/08/14 06:33:52;;;;;;;5.07;3.88;;;;;;;;;;10089970;28;20540;-70
2022/08/14 06:39:08;;;;;;;9.48;7.22;;;;;;;;;;10080778;28;20493;-69
2022/08/14 06:44:05;;;;;;;4.93;4.40;;;;;;;;;;10079178;28;20057;-70
2022/08/14 06:49:07;;;;;;;4.15;3.75;;;;;;;;;;10084406;28;20047;-71
2022/08/14 06:54:04;;;;;;;4.78;4.25;;;;;;;;;;10078085;28;20043;-71
2022/08/14 06:59:03;;;;;;;5.22;4.55;;;;;;;;;;10087095;28;20046;-69
2022/08/14 07:09:20;;;;;;;6.45;4.32;;;;;;;;;;10079781;28;20073;-70
2022/08/14 07:14:18;;;;;;;7.28;4.50;;;;;;;;;;10084040;28;20058;-70
2022/08/14 07:19:17;;;;;;;6.93;4.18;;;;;;;;;;10085383;28;20393;-69
2022/08/14 07:24:17;;;;;;;6.23;4.20;;;;;;;;;;10092027;28;20050;-69
2022/08/14 07:29:17;;;;;;;5.80;4.70;;;;;;;;;;10095423;28;20050;-69
2022/08/14 07:34:21;;;;;;;5.68;5.15;;;;;;;;;;10092504;28;20049;-70
2022/08/14 07:39:32;;;;;;;7.63;5.30;;;;;;;;;;10083849;28;20110;-69
2022/08/14 07:44:30;;;;;;;6.20;5.60;;;;;;;;;;10092767;28;20093;-69
2022/08/14 07:49:41;;;;;;;7.68;4.90;;;;;;;;;;10089786;28;20115;-69
2022/08/14 07:54:40;;;;;;;7.97;5.88;;;;;;;;;;10090610;28;20078;-69
2022/08/14 07:59:40;;;;;;;7.60;5.38;;;;;;;;;;10073081;28;20171;-69
2022/08/14 08:04:41;;;;;;;6.17;5.57;;;;;;;;;;10076412;28;20074;-69
2022/08/14 08:09:41;;;;;;;7.00;5.47;;;;;;;;;;10074496;28;20066;-69
2022/08/14 08:14:42;;;;;;;8.90;6.68;;;;;;;;;;10076148;28;20127;-69
2022/08/14 08:19:58;;;;;;;8.18;6.45;;;;;;;;;;10085669;28;20059;-70
2022/08/14 08:24:54;;;;;;;8.30;6.15;;;;;;;;;;10072752;28;20058;-70
2022/08/14 08:30:02;;;;;;;7.45;6.40;;;;;;;;;;10071149;28;20102;-70
2022/08/14 08:34:58;;;;;;;9.35;6.38;;;;;;;;;;10093092;28;20125;-70
2022/08/14 08:39:54;;;;;;;7.10;6.45;;;;;;;;;;10079951;28;20134;-70
2022/08/14 08:44:57;;;;;;;8.77;6.82;;;;;;;;;;10102221;28;20477;-71
2022/08/14 08:49:54;;;;;;;7.50;6.47;;;;;;;;;;10102105;28;20042;-68
2022/08/14 08:54:55;;;;;;;10.27;6.88;;;;;;;;;;10109607;28;20039;-68
2022/08/14 08:59:52;;;;;;;7.20;6.50;;;;;;;;;;10098104;28;20418;-68
2022/08/14 09:05:01;;;;;;;8.15;6.90;;;;;;;;;;10096753;28;20417;-68
2022/08/14 09:09:58;;;;;;;7.43;6.72;;;;;;;;;;10091574;28;20046;-68
2022/08/14 09:14:56;;;;;;;8.32;7.47;;;;;;;;;;10103067;28;20042;-68
2022/08/14 09:19:52;;;;;;;9.00;7.45;;;;;;;;;;10108095;28;20130;-68
2022/08/14 09:24:49;;;;;;;8.48;7.40;;;;;;;;;;10090546;28;20062;-68
2022/08/14 09:29:46;;;;;;;8.63;7.82;;;;;;;;;;10084092;28;20043;-68
2022/08/14 09:35:08;;;;;;;9.20;8.20;;;;;;;;;;10092875;28;20043;-68
2022/08/14 09:40:13;;;;;;;8.20;7.40;;;;;;;;;;10054963;28;20052;-68
2022/08/14 09:45:39;;;;;;;7.88;7.18;;;;;;;;;;10090417;28;20071;-68
2022/08/14 09:50:52;;;;;;;8.63;7.68;;;;;;;;;;10101901;28;20062;-68
2022/08/14 09:55:57;;;;;;;8.40;7.45;;;;;;;;;;10104869;28;20866;-68
2022/08/14 10:00:59;;;;;;;9.40;8.35;;;;;;;;;;10100339;28;20138;-68
2022/08/14 10:06:03;;;;;;;8.93;8.05;;;;;;;;;;10107451;28;20061;-68
2022/08/14 10:10:59;;;;;;;8.70;7.90;;;;;;;;;;10098365;28;20481;-67
2022/08/14 10:16:01;;;;;;;11.15;9.18;;;;;;;;;;10092750;28;20417;-68
2022/08/14 10:21:00;;;;;;;10.57;9.60;;;;;;;;;;10079140;28;20047;-68
2022/08/14 10:26:04;;;;;;;9.48;8.23;;;;;;;;;;10078713;28;20769;-68
2022/08/14 10:31:00;;;;;;;9.27;8.50;;;;;;;;;;10074321;28;21712;-68
2022/08/14 10:35:59;;;;;;;9.90;8.93;;;;;;;;;;10060350;28;20133;-67
2022/08/14 10:40:56;;;;;;;9.20;8.27;;;;;;;;;;10079473;28;20838;-68
2022/08/14 10:45:57;;;;;;;;;;;;;;;;;;10102471;28;20513;-68
2022/08/14 10:50:59;;;;;;;9.10;8.20;;;;;;;;;;10098756;28;19932;-68
2022/08/14 10:56:00;;;;;;;9.75;8.20;;;;;;;;;;10090040;28;20102;-68
2022/08/14 11:01:04;;;;;;;8.95;8.25;;;;;;;;;;10088665;28;20051;-68
2022/08/14 11:06:11;;;;;;;8.65;7.85;;;;;;;;;;10089750;28;20058;-69
2022/08/14 11:11:08;;;;;;;9.27;8.40;;;;;;;;;;10075433;28;20082;-68
2022/08/14 11:16:04;;;;;;;8.82;8.13;;;;;;;;;;10079002;28;20086;-69
2022/08/14 11:21:05;;;;;;;10.23;8.48;;;;;;;;;;10084485;28;20090;-69
2022/08/14 11:26:02;;;;;;;9.27;8.40;;;;;;;;;;10085249;28;20043;-69
2022/08/14 11:31:02;;;;;;;11.30;10.15;;;;;;;;;;10082960;28;20134;-69
2022/08/14 11:36:00;;;;;;;9.20;8.32;;;;;;;;;;10084467;28;20053;-69
2022/08/14 11:40:57;;;;;;;8.85;8.07;;;;;;;;;;10088038;28;20052;-69
2022/08/14 11:45:55;;;;;;;8.32;7.38;;;;;;;;;;10090367;28;20135;-69
2022/08/14 11:50:53;;;;;;;8.68;7.93;;;;;;;;;;10092764;28;20133;-68
2022/08/14 11:55:58;;;;;;;9.45;8.45;;;;;;;;;;10107755;28;20496;-69
2022/08/14 12:01:01;;;;;;;9.07;8.13;;;;;;;;;;10096525;28;20054;-69
2022/08/14 12:06:05;;;;;;;10.18;9.05;;;;;;;;;;10093914;28;20062;-68
2022/08/14 12:11:21;;;;;;;9.43;8.50;;;;;;;;;;10095840;28;20106;-68
2022/08/14 12:16:20;;;;;;;15.13;9.45;;;;;;;;;;10104377;28;20507;-68
2022/08/14 12:21:22;;;;;;;9.93;8.98;;;;;;;;;;10098681;28;20435;-69
2022/08/14 12:26:21;;;;;;;12.60;9.48;;;;;;;;;;10092169;28;20869;-68
2022/08/14 12:31:37;;;;;;;10.18;9.27;;;;;;;;;;10087765;28;20079;-68
2022/08/14 12:36:42;;;;;;;11.30;10.20;;;;;;;;;;10080596;28;20145;-67
2022/08/14 12:41:38;;;;;;;9.68;8.88;;;;;;;;;;10084521;28;20075;-67
2022/08/14 12:46:36;;;;;;;17.02;15.40;;;;;;;;;;10090720;28;20083;-68
2022/08/14 12:51:34;;;;;;;10.02;8.93;;;;;;;;;;10097455;28;20055;-68
2022/08/14 12:56:32;;;;;;;10.60;9.70;;;;;;;;;;10088145;28;20502;-68
2022/08/14 13:01:32;;;;;;;;;;;;;;;;;;10098887;28;20038;-67
2022/08/14 13:06:49;;;;;;;10.15;9.30;;;;;;;;;;10091651;28;20389;-68
2022/08/14 13:11:49;;;;;;;9.77;8.98;;;;;;;;;;10095572;28;20043;-68
2022/08/14 13:17:07;;;;;;;10.13;9.32;;;;;;;;;;10100484;28;20047;-68
2022/08/14 13:22:06;;;;;;;9.85;9.00;;;;;;;;;;10098898;28;20057;-68
2022/08/14 13:27:07;;;;;;;11.27;10.13;;;;;;;;;;10087810;28;20047;-68
2022/08/14 13:32:08;;;;;;;9.88;8.88;;;;;;;;;;10092740;28;20142;-68
2022/08/14 13:37:06;;;;;;;9.43;8.52;;;;;;;;;;10098467;28;20083;-68
2022/08/14 13:42:04;;;;;;;9.85;9.02;;;;;;;;;;10089185;28;20532;-68
2022/08/14 13:47:05;;;;;;;10.73;9.82;;;;;;;;;;10086285;28;20051;-68
2022/08/14 13:52:04;;;;;;;11.13;10.13;;;;;;;;;;10093904;28;20058;-68
2022/08/14 13:57:20;;;;;;;10.55;9.65;;;;;;;;;;10079543;28;20065;-69
2022/08/14 14:02:25;;;;;;;11.05;10.00;;;;;;;;;;10091408;28;20097;-69
2022/08/14 14:07:29;;;;;;;10.90;10.00;;;;;;;;;;10092816;28;20555;-68
2022/08/14 14:12:27;;;;;;;12.57;10.57;;;;;;;;;;10084895;28;20090;-68
2022/08/14 14:17:36;;;;;;;10.60;9.70;;;;;;;;;;10090518;28;20993;-68
2022/08/14 14:22:36;;;;;;;11.13;10.07;;;;;;;;;;10083110;28;20062;-68
2022/08/14 14:27:55;;;;;;;10.90;9.85;;;;;;;;;;10092345;28;20034;-68
2022/08/14 14:32:52;;;;;;;11.55;9.00;;;;;;;;;;10098649;28;20046;-68
2022/08/14 14:38:02;;;;;;;14.27;10.35;;;;;;;;;;10080308;28;20069;-68
2022/08/14 14:43:02;;;;;;;9.27;8.48;;;;;;;;;;10080246;28;20048;-68
2022/08/14 14:48:01;;;;;;;9.73;8.93;;;;;;;;;;10086919;28;21660;-68
2022/08/14 14:52:59;;;;;;;15.30;8.70;;;;;;;;;;10079614;28;20137;-68
2022/08/14 14:58:08;;;;;;;9.98;8.98;;;;;;;;;;10078186;28;20062;-68
2022/08/14 15:03:09;;;;;;;10.23;9.37;;;;;;;;;;10097801;28;20039;-68
2022/08/14 15:08:05;;;;;;;10.38;8.70;;;;;;;;;;10101232;28;20138;-68
2022/08/14 15:13:02;;;;;;;9.75;8.85;;;;;;;;;;10087623;28;20650;-68
2022/08/14 15:18:00;;;;;;;11.45;8.70;;;;;;;;;;10091671;28;20066;-68
2022/08/14 15:22:59;;;;;;;9.02;8.07;;;;;;;;;;10088095;28;20074;-68
2022/08/14 15:28:00;;;;;;;9.27;8.38;;;;;;;;;;10096564;28;20047;-68
2022/08/14 15:32:56;;;;;;;16.85;9.05;;;;;;;;;;10095422;28;20061;-68
2022/08/14 15:37:53;;;;;;;9.50;8.40;;;;;;;;;;10077964;28;20126;-68
2022/08/14 15:42:51;;;;;;;8.85;8.05;;;;;;;;;;10073699;28;20137;-68
2022/08/14 15:47:47;;;;;;;8.88;8.00;;;;;;;;;;10095179;28;20073;-68
2022/08/14 15:52:47;;;;;;;9.02;8.18;;;;;;;;;;10081860;28;20051;-68
2022/08/14 15:57:44;;;;;;;11.07;8.95;;;;;;;;;;10090064;28;20464;-68
2022/08/14 16:02:58;;;;;;;8.98;8.20;;;;;;;;;;10075484;28;20517;-68
2022/08/14 16:07:55;;;;;;;9.85;9.02;;;;;;;;;;10090871;28;20853;-68
2022/08/14 16:12:52;;;;;;;9.27;8.40;;;;;;;;;;10081191;28;20163;-68
2022/08/14 16:17:50;;;;;;;9.38;8.57;;;;;;;;;;10080589;28;20051;-69
2022/08/14 16:22:46;;;;;;;9.13;7.75;;;;;;;;;;10086929;28;20073;-69
2022/08/14 16:27:55;;;;;;;8.20;7.47;;;;;;;;;;10092333;28;20061;-69
2022/08/14 16:32:53;;;;;;;10.88;7.47;;;;;;;;;;10083336;28;20130;-69
2022/08/14 16:37:51;;;;;;;8.07;7.38;;;;;;;;;;10087777;28;20151;-69
2022/08/14 16:42:51;;;;;;;8.27;7.40;;;;;;;;;;10101639;28;20050;-69
2022/08/14 16:48:10;;;;;;;7.50;6.80;;;;;;;;;;10099804;28;20494;-70
2022/08/14 16:53:26;;;;;;;7.47;6.65;;;;;;;;;;10086502;28;20054;-70
2022/08/14 16:58:23;;;;;;;7.95;7.18;;;;;;;;;;10091321;28;20051;-70
2022/08/14 17:03:26;;;;;;;7.45;6.72;;;;;;;;;;10092452;28;20047;-70
2022/08/14 17:08:33;;;;;;;7.38;6.60;;;;;;;;;;10077502;28;20050;-70
2022/08/14 17:13:41;;;;;;;7.10;6.40;;;;;;;;;;10083575;28;20105;-71
2022/08/14 17:18:56;;;;;;;7.82;7.15;;;;;;;;;;10090717;28;20054;-70
2022/08/14 17:24:04;;;;;;;7.75;7.05;;;;;;;;;;10082846;28;20058;-70
2022/08/14 17:29:28;;;;;;;7.40;6.72;;;;;;;;;;10082960;28;20043;-70
2022/08/14 17:34:46;;;;;;;7.38;6.65;;;;;;;;;;10089210;28;20515;-70
2022/08/14 17:39:57;;;;;;;9.60;6.80;;;;;;;;;;10079069;28;20117;-70
2022/08/14 17:44:59;;;;;;;7.53;6.55;;;;;;;;;;10074454;28;20059;-70
2022/08/14 17:49:57;;;;;;;6.95;5.97;;;;;;;;;;10074589;28;20154;-70
2022/08/14 17:54:54;;;;;;;7.07;6.45;;;;;;;;;;10074630;28;20660;-71
2022/08/14 17:59:57;;;;;;;7.75;7.00;;;;;;;;;;10075330;28;20055;-70
2022/08/14 18:04:54;;;;;;;6.93;6.22;;;;;;;;;;10093008;28;20054;-70
2022/08/14 18:09:57;;;;;;;10.10;6.50;;;;;;;;;;10077833;28;20150;-71
2022/08/14 18:14:55;;;;;;;9.52;6.90;;;;;;;;;;10080393;28;20801;-71
2022/08/14 18:19:54;;;;;;;11.35;7.43;;;;;;;;;;10101010;28;20432;-70
2022/08/14 18:24:50;;;;;;;7.85;6.65;;;;;;;;;;10086798;28;20109;-70
2022/08/14 18:29:55;;;;;;;6.80;6.10;;;;;;;;;;10090108;28;20170;-70
2022/08/14 18:35:00;;;;;;;8.02;6.68;;;;;;;;;;10084186;28;20049;-70
2022/08/14 18:40:12;;;;;;;9.25;6.30;;;;;;;;;;10088346;28;20359;-70
2022/08/14 18:45:10;;;;;;;11.13;7.47;;;;;;;;;;10082352;28;20050;-70
2022/08/14 18:50:11;;;;;;;;;;;;;;;;;;10073885;28;20192;-71
2022/08/14 18:55:22;;;;;;;8.07;7.10;;;;;;;;;;10079772;28;20013;-70
2022/08/14 19:00:28;;;;;;;8.18;6.63;;;;;;;;;;10084411;28;20149;-70
2022/08/14 19:05:40;;;;;;;12.98;6.53;;;;;;;;;;10078138;28;20069;-70
2022/08/14 19:10:47;;;;;;;10.20;6.82;;;;;;;;;;10089007;28;20046;-70
2022/08/14 19:15:45;;;;;;;9.02;6.88;;;;;;;;;;10087659;28;20051;-70
2022/08/14 19:20:55;;;;;;;8.82;6.25;;;;;;;;;;10089056;28;20047;-67
2022/08/14 19:25:57;;;;;;;7.28;6.22;;;;;;;;;;10075265;28;20725;-70
2022/08/14 19:31:15;;;;;;;9.98;6.25;;;;;;;;;;10082294;28;20078;-70
2022/08/14 19:36:16;;;;;;;9.00;6.30;;;;;;;;;;10090154;28;20978;-69
2022/08/14 19:41:31;;;;;;;8.30;6.70;;;;;;;;;;10083577;28;20060;-69
2022/08/14 19:46:30;;;;;;;10.43;7.93;;;;;;;;;;10090677;28;20651;-69
2022/08/14 19:51:48;;;;;;;9.43;7.07;;;;;;;;;;10080500;28;20168;-70
2022/08/14 19:56:44;;;;;;;10.05;6.60;;;;;;;;;;10087261;28;20059;-68
2022/08/14 20:01:41;;;;;;;8.98;6.45;;;;;;;;;;10078000;28;20129;-68
2022/08/14 20:06:39;;;;;;;7.97;6.65;;;;;;;;;;10084956;28;20042;-68
2022/08/14 20:11:42;;;;;;;7.68;6.30;;;;;;;;;;10081630;28;20105;-67
2022/08/14 20:16:59;;;;;;;9.05;6.55;;;;;;;;;;10088992;28;20047;-67
2022/08/14 20:22:03;;;;;;;7.68;6.20;;;;;;;;;;10086204;28;20489;-68
2022/08/14 20:27:37;;;;;;;16.08;6.55;;;;;;;;;;10080966;28;20043;-67
2022/08/14 20:32:34;;;;;;;7.68;5.75;;;;;;;;;;10080944;28;20639;-68
2022/08/14 20:37:34;;;;;;;8.85;6.28;;;;;;;;;;10095712;28;20046;-68
2022/08/14 20:47:49;;;;;;;12.45;6.63;;;;;;;;;;10092511;28;20560;-68
2022/08/14 20:52:57;;;;;;;10.63;6.68;;;;;;;;;;10088741;28;20409;-68
2022/08/14 20:57:55;;;;;;;9.63;5.68;;;;;;;;;;10089405;28;20035;-68
2022/08/14 21:02:54;;;;;;;9.57;6.32;;;;;;;;;;10094773;28;20043;-69
2022/08/14 21:07:51;;;;;;;7.45;5.63;;;;;;;;;;10105100;28;20050;-69
2022/08/14 21:12:55;;;;;;;9.18;6.10;;;;;;;;;;10093216;28;20038;-67
2022/08/14 21:18:14;;;;;;;6.75;6.05;;;;;;;;;;10101807;28;20050;-67
2022/08/14 21:23:13;;;;;;;7.65;6.45;;;;;;;;;;10080293;28;20051;-67
2022/08/14 21:28:10;;;;;;;12.68;6.90;;;;;;;;;;10083368;28;20485;-67
2022/08/14 21:33:25;;;;;;;6.32;5.72;;;;;;;;;;10093253;28;20499;-67
2022/08/14 21:38:22;;;;;;;7.07;6.15;;;;;;;;;;10092250;28;20059;-67
2022/08/14 21:43:30;;;;;;;10.40;5.82;;;;;;;;;;10095684;28;20039;-67
2022/08/14 21:48:30;;;;;;;9.63;6.40;;;;;;;;;;10109287;28;20141;-67
2022/08/14 21:53:28;;;;;;;8.02;6.30;;;;;;;;;;10093237;28;20893;-67
2022/08/14 21:58:28;;;;;;;9.02;6.90;;;;;;;;;;10089002;28;20058;-67
2022/08/14 22:03:44;;;;;;;7.70;6.50;;;;;;;;;;10088747;28;20039;-67
2022/08/14 22:08:51;;;;;;;6.47;5.78;;;;;;;;;;10106386;28;20054;-67
2022/08/14 22:13:48;;;;;;;11.30;6.15;;;;;;;;;;10094508;28;20129;-67
2022/08/14 22:18:44;;;;;;;8.25;6.25;;;;;;;;;;10100270;28;20079;-68
2022/08/14 22:23:41;;;;;;;7.50;6.15;;;;;;;;;;10102398;28;20497;-67
2022/08/14 22:28:38;;;;;;;9.18;7.00;;;;;;;;;;10097347;28;20047;-67
2022/08/14 22:33:40;;;;;;;8.07;6.35;;;;;;;;;;10092877;28;20039;-68
2022/08/14 22:38:38;;;;;;;7.57;6.25;;;;;;;;;;10090728;28;20046;-67
2022/08/14 22:43:45;;;;;;;9.70;7.10;;;;;;;;;;10101733;28;20047;-68
2022/08/14 22:48:43;;;;;;;12.48;7.30;;;;;;;;;;10101325;28;20121;-69
2022/08/14 22:53:41;;;;;;;7.80;5.93;;;;;;;;;;10084239;28;20050;-68
2022/08/14 22:58:38;;;;;;;9.90;6.57;;;;;;;;;;10104060;28;20141;-68
2022/08/14 23:03:37;;;;;;;8.02;6.38;;;;;;;;;;10092449;28;20055;-68
2022/08/14 23:08:37;;;;;;;8.55;5.97;;;;;;;;;;10096676;28;20113;-68
2022/08/14 23:13:53;;;;;;;12.10;6.03;;;;;;;;;;10099816;28;20051;-68
2022/08/14 23:18:50;;;;;;;9.68;6.45;;;;;;;;;;10091081;28;20125;-68
2022/08/14 23:23:49;;;;;;;9.23;6.70;;;;;;;;;;10101209;28;20492;-68
2022/08/14 23:28:51;;;;;;;8.30;5.80;;;;;;;;;;10091466;28;20044;-67
2022/08/14 23:33:55;;;;;;;9.23;6.28;;;;;;;;;;10065319;28;20071;-68
2022/08/14 23:38:53;;;;;;;8.63;6.50;;;;;;;;;;10084417;28;20046;-68
2022/08/14 23:43:53;;;;;;;8.40;6.35;;;;;;;;;;10095318;28;20125;-68
2022/08/14 23:48:49;;;;;;;8.02;6.18;;;;;;;;;;10092901;28;20078;-68
2022/08/14 23:53:47;;;;;;;8.20;6.22;;;;;;;;;;10075511;28;20043;-68
2022/08/14 23:58:47;;;;;;;8.35;6.10;;;;;;;;;;10090066;28;20627;-68
